Savannah, GA (31405)

7:48 AM EST en Febrero 13, 2016 (GMT -0500)
Chatham Crescent | | Change Station
CLOSE
Current Station
Estación meteorológica personal
Location: Savannah, GA
Altura: 20 ft
Estaciones meteorológicas cercanas
Aviso en curso: Flood Warning

Alt 20 ft 32.04 °N, 81.10 °W | Updated 3 seconds ago

Clear
Despejado
40.1 ° F
Sensación térmica 40 ° F
N
0.0
Viento Variable Viento desde Oeste
Gusts 1.8 mph

Hoy
Alta -- | Baja -- ° F
--% Posibilidad de precipitaciones
Ayer
Alta -- | Baja -- ° F
Precip. -- pul
Presión 30.21 pul
Visibilidad 10.0 Millas
Nubes Despejado
Vientos helados 40 ° F
Punto de rocío 33 ° F
Humedad 75%
Precipitaciones 0.00 pul
Espesor de la nieve No disponible.
7:09 AM 6:08 PM
Creciente, 30% visible
METAR KSVN 131158Z AUTO 32006KT 10SM CLR 05/00 A3020 RMK AO2 SLP230 T00500003 10109 20041 52030 $
Presión 30.21 pul
Visibilidad 10.0 Millas
Nubes Despejado
Vientos helados 40 ° F
Punto de rocío 33 ° F
Humedad 75%
Precipitaciones 0.00 pul
Espesor de la nieve No disponible.
7:09 AM 6:08 PM
Creciente, 30% visible
METAR KSVN 131158Z AUTO 32006KT 10SM CLR 05/00 A3020 RMK AO2 SLP230 T00500003 10109 20041 52030 $

10-Day Weather Forecast

Almanac

Astronomía

Feb. 13, 2016 Salida Puesta
Hora real
Crepúsculo civil
Crepúsculo náutico
Crepúsculo astronómico
Luna
Horas de luz
Horas de luz
Tomorrow will be .
, % of the Moon is Illuminated

Extremos de hoy

Máximos del estado Bajos del estado

Community

WunderPhotos

Upload Photos

1,892,543 ¡fotos cargadas!

WunderBlog® & News

Nearby

Calidad del aire

  Calidad del aire Índice AQ Contaminante
Not available.

Grosos de nieve

Estación Profundido Altura

Actividad de terremotos

Ciudad Distance Mag. Tiempo y dato
Magnitud mínima muestra es 2,5.

Temperaturas de aguas costeras

Lugar Temperatura

Stations

Estaciones meteorológicas cercanas

Ubicación de la estación Temp. Vientos helados Punto de rocío Humedad Viento Precip. Alt Actualizado Tipo
                   

Watches & Warnings

Flood Warning
Issued: 8:01 PM EST Feb. 12, 2016 – National Weather Service

The Flood Warning continues for
the Ogeechee river near Eden.
* At 7 PM Friday the stage was 12.7 feet.
* Flood stage is 11.0 feet.
* Minor flooding is occurring.
* Forecast, the river will continue to fall.
* At 12.0 feet, water encroaches on some homes along dashers Landing
Road and Yarbrough Landing Road. Davis Landing Road also becomes
impassable.


Lat... Lon 3246 8160 3252 8152 3227 8140 3208 8133
          3206 8143 3223 8150